sensor_id;sensor_type;location;lat;lon;timestamp;P1;durP1;ratioP1;P2;durP2;ratioP2
32032;SDS011;31720;52.638;9.216;2023-06-22T00:02:44;3.83;;;1.60;;
32032;SDS011;31720;52.638;9.216;2023-06-22T00:05:45;2.95;;;1.80;;
32032;SDS011;31720;52.638;9.216;2023-06-22T00:08:47;2.78;;;1.85;;
32032;SDS011;31720;52.638;9.216;2023-06-22T00:11:48;2.75;;;2.17;;
32032;SDS011;31720;52.638;9.216;2023-06-22T00:14:49;3.75;;;2.28;;
32032;SDS011;31720;52.638;9.216;2023-06-22T00:17:52;3.20;;;2.00;;
32032;SDS011;31720;52.638;9.216;2023-06-22T00:20:54;2.55;;;2.08;;
32032;SDS011;31720;52.638;9.216;2023-06-22T00:23:57;6.82;;;2.75;;
32032;SDS011;31720;52.638;9.216;2023-06-22T00:26:59;2.85;;;1.67;;
32032;SDS011;31720;52.638;9.216;2023-06-22T00:30:00;3.33;;;2.00;;
32032;SDS011;31720;52.638;9.216;2023-06-22T00:33:03;2.80;;;2.08;;
32032;SDS011;31720;52.638;9.216;2023-06-22T00:36:07;3.63;;;1.80;;
32032;SDS011;31720;52.638;9.216;2023-06-22T00:39:08;7.15;;;2.10;;
32032;SDS011;31720;52.638;9.216;2023-06-22T00:42:10;4.10;;;1.83;;
32032;SDS011;31720;52.638;9.216;2023-06-22T00:45:12;4.88;;;2.85;;
32032;SDS011;31720;52.638;9.216;2023-06-22T00:48:14;7.55;;;2.17;;
32032;SDS011;31720;52.638;9.216;2023-06-22T00:51:16;2.35;;;1.58;;
32032;SDS011;31720;52.638;9.216;2023-06-22T00:54:24;3.58;;;1.90;;
32032;SDS011;31720;52.638;9.216;2023-06-22T00:57:26;3.10;;;1.95;;
32032;SDS011;31720;52.638;9.216;2023-06-22T01:00:28;3.03;;;2.00;;
32032;SDS011;31720;52.638;9.216;2023-06-22T01:03:31;3.65;;;1.77;;
32032;SDS011;31720;52.638;9.216;2023-06-22T01:06:33;2.13;;;1.63;;
32032;SDS011;31720;52.638;9.216;2023-06-22T01:09:41;3.95;;;2.40;;
32032;SDS011;31720;52.638;9.216;2023-06-22T01:12:52;2.15;;;1.60;;
32032;SDS011;31720;52.638;9.216;2023-06-22T01:15:58;4.43;;;2.30;;
32032;SDS011;31720;52.638;9.216;2023-06-22T01:19:08;3.42;;;2.13;;
32032;SDS011;31720;52.638;9.216;2023-06-22T01:22:19;2.28;;;1.70;;
32032;SDS011;31720;52.638;9.216;2023-06-22T01:25:25;4.28;;;2.05;;
32032;SDS011;31720;52.638;9.216;2023-06-22T01:28:39;2.42;;;1.92;;
32032;SDS011;31720;52.638;9.216;2023-06-22T01:31:44;3.10;;;2.00;;
32032;SDS011;31720;52.638;9.216;2023-06-22T01:34:46;3.47;;;2.33;;
32032;SDS011;31720;52.638;9.216;2023-06-22T01:37:49;3.90;;;2.00;;
32032;SDS011;31720;52.638;9.216;2023-06-22T01:40:50;4.13;;;2.65;;
32032;SDS011;31720;52.638;9.216;2023-06-22T01:43:54;4.57;;;2.63;;
32032;SDS011;31720;52.638;9.216;2023-06-22T01:46:56;4.78;;;2.60;;
32032;SDS011;31720;52.638;9.216;2023-06-22T01:49:58;3.53;;;2.10;;
32032;SDS011;31720;52.638;9.216;2023-06-22T01:52:59;3.42;;;2.20;;
32032;SDS011;31720;52.638;9.216;2023-06-22T01:56:00;3.38;;;2.10;;
32032;SDS011;31720;52.638;9.216;2023-06-22T01:59:04;4.22;;;2.28;;
32032;SDS011;31720;52.638;9.216;2023-06-22T02:02:12;4.63;;;2.08;;
32032;SDS011;31720;52.638;9.216;2023-06-22T02:05:17;3.40;;;1.83;;
32032;SDS011;31720;52.638;9.216;2023-06-22T02:08:21;3.83;;;2.40;;
32032;SDS011;31720;52.638;9.216;2023-06-22T02:11:25;3.42;;;2.38;;
32032;SDS011;31720;52.638;9.216;2023-06-22T02:14:30;2.78;;;2.35;;
32032;SDS011;31720;52.638;9.216;2023-06-22T02:17:32;3.38;;;2.40;;
32032;SDS011;31720;52.638;9.216;2023-06-22T02:20:36;3.53;;;2.33;;
32032;SDS011;31720;52.638;9.216;2023-06-22T02:23:37;4.78;;;3.13;;
32032;SDS011;31720;52.638;9.216;2023-06-22T02:26:39;4.03;;;2.47;;
32032;SDS011;31720;52.638;9.216;2023-06-22T02:29:43;3.33;;;2.42;;
32032;SDS011;31720;52.638;9.216;2023-06-22T02:32:45;4.15;;;2.28;;
32032;SDS011;31720;52.638;9.216;2023-06-22T02:35:46;4.60;;;2.60;;
32032;SDS011;31720;52.638;9.216;2023-06-22T02:38:49;3.05;;;2.15;;
32032;SDS011;31720;52.638;9.216;2023-06-22T02:41:51;4.55;;;2.63;;
32032;SDS011;31720;52.638;9.216;2023-06-22T02:44:54;2.83;;;2.13;;
32032;SDS011;31720;52.638;9.216;2023-06-22T02:47:55;4.68;;;2.95;;
32032;SDS011;31720;52.638;9.216;2023-06-22T02:50:57;5.05;;;2.67;;
32032;SDS011;31720;52.638;9.216;2023-06-22T02:53:58;5.45;;;3.00;;
32032;SDS011;31720;52.638;9.216;2023-06-22T02:56:59;5.40;;;2.95;;
32032;SDS011;31720;52.638;9.216;2023-06-22T03:00:04;5.85;;;3.30;;
32032;SDS011;31720;52.638;9.216;2023-06-22T03:03:16;4.78;;;2.97;;
32032;SDS011;31720;52.638;9.216;2023-06-22T03:06:18;9.70;;;2.65;;
32032;SDS011;31720;52.638;9.216;2023-06-22T03:09:23;4.05;;;3.00;;
32032;SDS011;31720;52.638;9.216;2023-06-22T03:12:24;4.05;;;2.60;;
32032;SDS011;31720;52.638;9.216;2023-06-22T03:15:27;6.03;;;2.75;;
32032;SDS011;31720;52.638;9.216;2023-06-22T03:18:29;2.90;;;2.05;;
32032;SDS011;31720;52.638;9.216;2023-06-22T03:21:30;4.80;;;2.53;;
32032;SDS011;31720;52.638;9.216;2023-06-22T03:24:32;4.28;;;2.72;;
32032;SDS011;31720;52.638;9.216;2023-06-22T03:27:34;5.45;;;2.50;;
32032;SDS011;31720;52.638;9.216;2023-06-22T03:30:37;5.05;;;2.67;;
32032;SDS011;31720;52.638;9.216;2023-06-22T03:33:38;4.45;;;3.00;;
32032;SDS011;31720;52.638;9.216;2023-06-22T03:36:39;4.70;;;2.78;;
32032;SDS011;31720;52.638;9.216;2023-06-22T03:39:41;5.15;;;3.10;;
32032;SDS011;31720;52.638;9.216;2023-06-22T03:42:42;4.45;;;3.13;;
32032;SDS011;31720;52.638;9.216;2023-06-22T03:45:45;5.35;;;3.30;;
32032;SDS011;31720;52.638;9.216;2023-06-22T03:48:46;6.82;;;3.45;;
32032;SDS011;31720;52.638;9.216;2023-06-22T03:51:48;6.07;;;3.72;;
32032;SDS011;31720;52.638;9.216;2023-06-22T03:54:49;5.25;;;3.25;;
32032;SDS011;31720;52.638;9.216;2023-06-22T03:57:50;6.15;;;3.05;;
32032;SDS011;31720;52.638;9.216;2023-06-22T04:00:54;9.48;;;4.13;;
32032;SDS011;31720;52.638;9.216;2023-06-22T04:03:55;4.63;;;3.10;;
32032;SDS011;31720;52.638;9.216;2023-06-22T04:06:57;4.88;;;3.25;;
32032;SDS011;31720;52.638;9.216;2023-06-22T04:09:58;6.65;;;3.33;;
32032;SDS011;31720;52.638;9.216;2023-06-22T04:12:59;4.50;;;3.40;;
32032;SDS011;31720;52.638;9.216;2023-06-22T04:16:02;5.75;;;3.65;;
32032;SDS011;31720;52.638;9.216;2023-06-22T04:19:04;3.88;;;3.13;;
32032;SDS011;31720;52.638;9.216;2023-06-22T04:22:05;6.22;;;3.22;;
32032;SDS011;31720;52.638;9.216;2023-06-22T04:25:07;3.65;;;2.75;;
32032;SDS011;31720;52.638;9.216;2023-06-22T04:28:09;7.20;;;3.50;;
32032;SDS011;31720;52.638;9.216;2023-06-22T04:31:13;4.72;;;3.10;;
32032;SDS011;31720;52.638;9.216;2023-06-22T04:34:15;4.50;;;3.05;;
32032;SDS011;31720;52.638;9.216;2023-06-22T04:37:16;8.23;;;3.22;;
32032;SDS011;31720;52.638;9.216;2023-06-22T04:40:17;6.10;;;3.85;;
32032;SDS011;31720;52.638;9.216;2023-06-22T04:43:20;7.63;;;3.97;;
32032;SDS011;31720;52.638;9.216;2023-06-22T04:46:22;6.45;;;3.80;;
32032;SDS011;31720;52.638;9.216;2023-06-22T04:49:24;7.10;;;2.67;;
32032;SDS011;31720;52.638;9.216;2023-06-22T04:52:32;5.17;;;3.70;;
32032;SDS011;31720;52.638;9.216;2023-06-22T04:55:33;3.90;;;2.25;;
32032;SDS011;31720;52.638;9.216;2023-06-22T04:58:37;5.28;;;3.15;;
32032;SDS011;31720;52.638;9.216;2023-06-22T05:01:40;5.38;;;3.45;;
32032;SDS011;31720;52.638;9.216;2023-06-22T05:04:41;7.05;;;3.60;;
32032;SDS011;31720;52.638;9.216;2023-06-22T05:07:43;7.38;;;3.00;;
32032;SDS011;31720;52.638;9.216;2023-06-22T05:10:48;3.25;;;2.67;;
32032;SDS011;31720;52.638;9.216;2023-06-22T05:13:49;13.90;;;6.93;;
32032;SDS011;31720;52.638;9.216;2023-06-22T05:16:52;7.72;;;4.47;;
32032;SDS011;31720;52.638;9.216;2023-06-22T05:19:53;6.15;;;3.60;;
32032;SDS011;31720;52.638;9.216;2023-06-22T05:22:55;4.88;;;2.70;;
32032;SDS011;31720;52.638;9.216;2023-06-22T05:25:56;6.45;;;2.88;;
32032;SDS011;31720;52.638;9.216;2023-06-22T05:28:57;3.67;;;2.53;;
32032;SDS011;31720;52.638;9.216;2023-06-22T05:32:02;4.07;;;2.30;;
32032;SDS011;31720;52.638;9.216;2023-06-22T05:35:04;4.20;;;2.65;;
32032;SDS011;31720;52.638;9.216;2023-06-22T05:38:05;4.82;;;2.70;;
32032;SDS011;31720;52.638;9.216;2023-06-22T05:41:07;3.45;;;2.35;;
32032;SDS011;31720;52.638;9.216;2023-06-22T05:44:09;7.93;;;2.95;;
32032;SDS011;31720;52.638;9.216;2023-06-22T05:47:12;4.90;;;2.78;;
32032;SDS011;31720;52.638;9.216;2023-06-22T05:50:13;3.15;;;2.30;;
32032;SDS011;31720;52.638;9.216;2023-06-22T05:53:14;6.47;;;2.65;;
32032;SDS011;31720;52.638;9.216;2023-06-22T05:56:16;4.30;;;2.58;;
32032;SDS011;31720;52.638;9.216;2023-06-22T05:59:17;5.18;;;2.95;;
32032;SDS011;31720;52.638;9.216;2023-06-22T06:02:20;8.15;;;3.20;;
32032;SDS011;31720;52.638;9.216;2023-06-22T06:05:21;3.58;;;2.78;;
32032;SDS011;31720;52.638;9.216;2023-06-22T06:08:23;4.00;;;2.83;;
32032;SDS011;31720;52.638;9.216;2023-06-22T06:11:26;2.42;;;1.88;;
32032;SDS011;31720;52.638;9.216;2023-06-22T06:14:28;4.43;;;2.38;;
32032;SDS011;31720;52.638;9.216;2023-06-22T06:17:30;3.67;;;2.42;;
32032;SDS011;31720;52.638;9.216;2023-06-22T06:20:32;5.05;;;2.63;;
32032;SDS011;31720;52.638;9.216;2023-06-22T06:23:33;3.42;;;2.13;;
32032;SDS011;31720;52.638;9.216;2023-06-22T06:26:34;3.22;;;2.35;;
32032;SDS011;31720;52.638;9.216;2023-06-22T06:29:36;5.18;;;3.00;;
32032;SDS011;31720;52.638;9.216;2023-06-22T06:32:38;2.92;;;2.15;;
32032;SDS011;31720;52.638;9.216;2023-06-22T06:35:40;2.97;;;1.80;;
32032;SDS011;31720;52.638;9.216;2023-06-22T06:38:42;4.00;;;2.17;;
32032;SDS011;31720;52.638;9.216;2023-06-22T06:41:43;2.63;;;1.70;;
32032;SDS011;31720;52.638;9.216;2023-06-22T06:44:44;3.33;;;1.80;;
32032;SDS011;31720;52.638;9.216;2023-06-22T06:47:47;3.63;;;2.30;;
32032;SDS011;31720;52.638;9.216;2023-06-22T06:50:49;5.53;;;2.55;;
32032;SDS011;31720;52.638;9.216;2023-06-22T06:53:50;2.55;;;2.10;;
32032;SDS011;31720;52.638;9.216;2023-06-22T06:56:51;3.78;;;2.45;;
32032;SDS011;31720;52.638;9.216;2023-06-22T06:59:53;2.15;;;1.90;;
32032;SDS011;31720;52.638;9.216;2023-06-22T07:02:55;3.58;;;2.00;;
32032;SDS011;31720;52.638;9.216;2023-06-22T07:05:57;3.28;;;2.00;;
32032;SDS011;31720;52.638;9.216;2023-06-22T07:08:58;3.40;;;1.95;;
32032;SDS011;31720;52.638;9.216;2023-06-22T07:11:59;3.80;;;2.20;;
32032;SDS011;31720;52.638;9.216;2023-06-22T07:15:02;2.75;;;1.83;;
32032;SDS011;31720;52.638;9.216;2023-06-22T07:18:05;6.07;;;2.30;;
32032;SDS011;31720;52.638;9.216;2023-06-22T07:21:06;3.00;;;2.05;;
32032;SDS011;31720;52.638;9.216;2023-06-22T07:24:08;2.60;;;1.90;;
32032;SDS011;31720;52.638;9.216;2023-06-22T07:27:09;3.30;;;2.17;;
32032;SDS011;31720;52.638;9.216;2023-06-22T07:30:12;2.53;;;1.90;;
32032;SDS011;31720;52.638;9.216;2023-06-22T07:33:15;3.05;;;2.20;;
32032;SDS011;31720;52.638;9.216;2023-06-22T07:36:17;3.70;;;1.92;;
32032;SDS011;31720;52.638;9.216;2023-06-22T07:39:18;3.55;;;2.13;;
32032;SDS011;31720;52.638;9.216;2023-06-22T07:42:25;3.03;;;2.10;;
32032;SDS011;31720;52.638;9.216;2023-06-22T07:45:27;6.05;;;2.70;;
32032;SDS011;31720;52.638;9.216;2023-06-22T07:48:29;3.45;;;2.40;;
32032;SDS011;31720;52.638;9.216;2023-06-22T07:51:31;5.22;;;2.55;;
32032;SDS011;31720;52.638;9.216;2023-06-22T07:54:32;3.15;;;2.30;;
32032;SDS011;31720;52.638;9.216;2023-06-22T07:57:33;6.65;;;3.88;;
32032;SDS011;31720;52.638;9.216;2023-06-22T08:00:36;3.45;;;2.50;;
32032;SDS011;31720;52.638;9.216;2023-06-22T08:03:38;2.55;;;2.08;;
32032;SDS011;31720;52.638;9.216;2023-06-22T08:06:40;4.30;;;2.40;;
32032;SDS011;31720;52.638;9.216;2023-06-22T08:09:45;3.88;;;2.40;;
32032;SDS011;31720;52.638;9.216;2023-06-22T08:12:48;6.38;;;2.60;;
32032;SDS011;31720;52.638;9.216;2023-06-22T08:15:49;4.03;;;3.00;;
32032;SDS011;31720;52.638;9.216;2023-06-22T08:18:52;3.67;;;2.45;;
32032;SDS011;31720;52.638;9.216;2023-06-22T08:21:53;3.63;;;2.80;;
32032;SDS011;31720;52.638;9.216;2023-06-22T08:24:54;4.05;;;2.95;;
32032;SDS011;31720;52.638;9.216;2023-06-22T08:27:55;6.07;;;2.72;;
32032;SDS011;31720;52.638;9.216;2023-06-22T08:30:57;4.38;;;2.60;;
32032;SDS011;31720;52.638;9.216;2023-06-22T08:33:59;3.15;;;2.38;;
32032;SDS011;31720;52.638;9.216;2023-06-22T08:37:01;3.58;;;2.70;;
32032;SDS011;31720;52.638;9.216;2023-06-22T08:40:07;4.85;;;2.75;;
32032;SDS011;31720;52.638;9.216;2023-06-22T08:43:10;5.95;;;2.78;;
32032;SDS011;31720;52.638;9.216;2023-06-22T08:46:11;4.35;;;3.22;;
32032;SDS011;31720;52.638;9.216;2023-06-22T08:49:14;5.05;;;3.20;;
32032;SDS011;31720;52.638;9.216;2023-06-22T08:52:16;3.22;;;2.60;;
32032;SDS011;31720;52.638;9.216;2023-06-22T08:55:18;4.63;;;2.67;;
32032;SDS011;31720;52.638;9.216;2023-06-22T08:58:19;4.97;;;2.72;;
32032;SDS011;31720;52.638;9.216;2023-06-22T09:01:21;4.07;;;2.47;;
32032;SDS011;31720;52.638;9.216;2023-06-22T09:04:24;3.42;;;2.45;;
32032;SDS011;31720;52.638;9.216;2023-06-22T09:07:25;3.88;;;2.70;;
32032;SDS011;31720;52.638;9.216;2023-06-22T09:10:27;4.75;;;3.30;;
32032;SDS011;31720;52.638;9.216;2023-06-22T09:16:31;4.85;;;3.20;;
32032;SDS011;31720;52.638;9.216;2023-06-22T09:19:34;6.30;;;3.80;;
32032;SDS011;31720;52.638;9.216;2023-06-22T09:22:35;6.03;;;3.45;;
32032;SDS011;31720;52.638;9.216;2023-06-22T09:25:36;4.00;;;3.30;;
32032;SDS011;31720;52.638;9.216;2023-06-22T09:28:38;5.00;;;3.63;;
32032;SDS011;31720;52.638;9.216;2023-06-22T09:31:39;4.22;;;2.92;;
32032;SDS011;31720;52.638;9.216;2023-06-22T09:34:42;4.55;;;3.40;;
32032;SDS011;31720;52.638;9.216;2023-06-22T09:37:43;5.18;;;3.53;;
32032;SDS011;31720;52.638;9.216;2023-06-22T09:40:45;4.82;;;2.75;;
32032;SDS011;31720;52.638;9.216;2023-06-22T09:43:46;5.53;;;3.38;;
32032;SDS011;31720;52.638;9.216;2023-06-22T09:46:48;4.40;;;3.33;;
32032;SDS011;31720;52.638;9.216;2023-06-22T09:49:50;4.97;;;3.25;;
32032;SDS011;31720;52.638;9.216;2023-06-22T09:52:52;6.15;;;3.20;;
32032;SDS011;31720;52.638;9.216;2023-06-22T09:55:54;5.22;;;3.45;;
32032;SDS011;31720;52.638;9.216;2023-06-22T09:58:57;4.25;;;3.30;;
32032;SDS011;31720;52.638;9.216;2023-06-22T10:01:58;5.43;;;3.20;;
32032;SDS011;31720;52.638;9.216;2023-06-22T10:05:01;5.45;;;3.63;;
32032;SDS011;31720;52.638;9.216;2023-06-22T10:08:02;4.38;;;3.38;;
32032;SDS011;31720;52.638;9.216;2023-06-22T10:11:04;5.07;;;3.55;;
32032;SDS011;31720;52.638;9.216;2023-06-22T10:14:05;5.72;;;3.72;;
32032;SDS011;31720;52.638;9.216;2023-06-22T10:17:07;6.32;;;3.95;;
32032;SDS011;31720;52.638;9.216;2023-06-22T10:20:10;5.25;;;3.15;;
32032;SDS011;31720;52.638;9.216;2023-06-22T10:23:12;6.13;;;3.78;;
32032;SDS011;31720;52.638;9.216;2023-06-22T10:26:14;5.97;;;3.55;;
32032;SDS011;31720;52.638;9.216;2023-06-22T10:29:15;4.63;;;3.42;;
32032;SDS011;31720;52.638;9.216;2023-06-22T10:32:16;5.38;;;3.58;;
32032;SDS011;31720;52.638;9.216;2023-06-22T10:35:19;5.80;;;4.07;;
32032;SDS011;31720;52.638;9.216;2023-06-22T10:38:20;5.28;;;3.58;;
32032;SDS011;31720;52.638;9.216;2023-06-22T10:41:22;4.93;;;3.67;;
32032;SDS011;31720;52.638;9.216;2023-06-22T10:44:23;9.73;;;4.07;;
32032;SDS011;31720;52.638;9.216;2023-06-22T10:47:24;6.13;;;3.83;;
32032;SDS011;31720;52.638;9.216;2023-06-22T10:50:27;6.70;;;4.00;;
32032;SDS011;31720;52.638;9.216;2023-06-22T10:53:28;5.93;;;3.97;;
32032;SDS011;31720;52.638;9.216;2023-06-22T10:56:29;5.03;;;3.75;;
32032;SDS011;31720;52.638;9.216;2023-06-22T10:59:33;5.47;;;3.78;;
32032;SDS011;31720;52.638;9.216;2023-06-22T11:02:35;6.25;;;4.20;;
32032;SDS011;31720;52.638;9.216;2023-06-22T11:05:37;6.50;;;3.92;;
32032;SDS011;31720;52.638;9.216;2023-06-22T11:08:39;5.85;;;4.13;;
32032;SDS011;31720;52.638;9.216;2023-06-22T11:11:40;6.55;;;3.90;;
32032;SDS011;31720;52.638;9.216;2023-06-22T11:14:41;8.65;;;4.10;;
32032;SDS011;31720;52.638;9.216;2023-06-22T11:17:43;6.05;;;4.28;;
32032;SDS011;31720;52.638;9.216;2023-06-22T11:20:45;6.88;;;3.90;;
32032;SDS011;31720;52.638;9.216;2023-06-22T11:23:47;5.75;;;3.85;;
32032;SDS011;31720;52.638;9.216;2023-06-22T11:26:51;6.13;;;3.97;;
32032;SDS011;31720;52.638;9.216;2023-06-22T11:29:52;7.80;;;4.90;;
32032;SDS011;31720;52.638;9.216;2023-06-22T11:32:54;6.38;;;4.22;;
32032;SDS011;31720;52.638;9.216;2023-06-22T11:35:56;7.55;;;4.65;;
32032;SDS011;31720;52.638;9.216;2023-06-22T11:38:58;6.55;;;4.85;;
32032;SDS011;31720;52.638;9.216;2023-06-22T11:41:59;6.43;;;4.55;;
32032;SDS011;31720;52.638;9.216;2023-06-22T11:45:00;6.95;;;4.63;;
32032;SDS011;31720;52.638;9.216;2023-06-22T11:48:05;7.97;;;5.28;;
32032;SDS011;31720;52.638;9.216;2023-06-22T11:51:07;7.90;;;5.15;;
32032;SDS011;31720;52.638;9.216;2023-06-22T11:54:09;7.43;;;5.18;;
32032;SDS011;31720;52.638;9.216;2023-06-22T11:57:10;6.53;;;4.55;;
32032;SDS011;31720;52.638;9.216;2023-06-22T12:00:12;7.07;;;4.63;;
32032;SDS011;31720;52.638;9.216;2023-06-22T12:03:16;6.18;;;4.43;;
32032;SDS011;31720;52.638;9.216;2023-06-22T12:06:18;5.63;;;4.20;;
32032;SDS011;31720;52.638;9.216;2023-06-22T12:09:20;8.18;;;4.38;;
32032;SDS011;31720;52.638;9.216;2023-06-22T12:12:21;7.43;;;4.18;;
32032;SDS011;31720;52.638;9.216;2023-06-22T12:15:23;9.05;;;4.57;;
32032;SDS011;31720;52.638;9.216;2023-06-22T12:18:24;7.13;;;4.70;;
32032;SDS011;31720;52.638;9.216;2023-06-22T12:21:27;7.15;;;4.72;;
32032;SDS011;31720;52.638;9.216;2023-06-22T12:24:29;7.65;;;4.63;;
32032;SDS011;31720;52.638;9.216;2023-06-22T12:27:30;7.50;;;4.47;;
32032;SDS011;31720;52.638;9.216;2023-06-22T12:30:32;7.43;;;4.70;;
32032;SDS011;31720;52.638;9.216;2023-06-22T12:33:33;7.70;;;5.45;;
32032;SDS011;31720;52.638;9.216;2023-06-22T12:36:36;7.65;;;4.88;;
32032;SDS011;31720;52.638;9.216;2023-06-22T12:39:40;7.38;;;4.47;;
32032;SDS011;31720;52.638;9.216;2023-06-22T12:42:42;6.13;;;4.63;;
32032;SDS011;31720;52.638;9.216;2023-06-22T12:45:43;7.20;;;4.90;;
32032;SDS011;31720;52.638;9.216;2023-06-22T12:48:45;7.78;;;5.60;;
32032;SDS011;31720;52.638;9.216;2023-06-22T12:51:47;6.65;;;4.57;;
32032;SDS011;31720;52.638;9.216;2023-06-22T12:54:49;6.82;;;5.28;;
32032;SDS011;31720;52.638;9.216;2023-06-22T12:57:50;8.63;;;5.70;;
32032;SDS011;31720;52.638;9.216;2023-06-22T13:00:51;5.80;;;4.38;;
32032;SDS011;31720;52.638;9.216;2023-06-22T13:03:53;7.53;;;4.53;;
32032;SDS011;31720;52.638;9.216;2023-06-22T13:06:56;5.72;;;3.60;;
32032;SDS011;31720;52.638;9.216;2023-06-22T13:09:57;5.97;;;3.88;;
32032;SDS011;31720;52.638;9.216;2023-06-22T13:12:58;7.75;;;3.58;;
32032;SDS011;31720;52.638;9.216;2023-06-22T13:16:00;7.00;;;4.47;;
32032;SDS011;31720;52.638;9.216;2023-06-22T13:19:02;6.90;;;4.75;;
32032;SDS011;31720;52.638;9.216;2023-06-22T13:22:05;5.25;;;4.10;;
32032;SDS011;31720;52.638;9.216;2023-06-22T13:25:07;6.40;;;4.22;;
32032;SDS011;31720;52.638;9.216;2023-06-22T13:28:11;7.75;;;5.43;;
32032;SDS011;31720;52.638;9.216;2023-06-22T13:31:13;5.47;;;4.13;;
32032;SDS011;31720;52.638;9.216;2023-06-22T13:34:15;6.10;;;3.85;;
32032;SDS011;31720;52.638;9.216;2023-06-22T13:37:17;6.80;;;4.80;;
32032;SDS011;31720;52.638;9.216;2023-06-22T13:40:19;7.50;;;4.65;;
32032;SDS011;31720;52.638;9.216;2023-06-22T13:43:20;6.25;;;4.40;;
32032;SDS011;31720;52.638;9.216;2023-06-22T13:46:21;7.35;;;4.72;;
32032;SDS011;31720;52.638;9.216;2023-06-22T13:49:23;6.32;;;4.70;;
32032;SDS011;31720;52.638;9.216;2023-06-22T13:52:26;8.13;;;4.47;;
32032;SDS011;31720;52.638;9.216;2023-06-22T13:55:27;6.18;;;4.40;;
32032;SDS011;31720;52.638;9.216;2023-06-22T13:58:28;7.72;;;5.22;;
32032;SDS011;31720;52.638;9.216;2023-06-22T14:01:30;7.13;;;4.60;;
32032;SDS011;31720;52.638;9.216;2023-06-22T14:04:31;7.32;;;4.93;;
32032;SDS011;31720;52.638;9.216;2023-06-22T14:07:34;6.75;;;4.93;;
32032;SDS011;31720;52.638;9.216;2023-06-22T14:10:35;8.05;;;4.72;;
32032;SDS011;31720;52.638;9.216;2023-06-22T14:13:37;7.88;;;5.20;;
32032;SDS011;31720;52.638;9.216;2023-06-22T14:16:38;6.03;;;4.25;;
32032;SDS011;31720;52.638;9.216;2023-06-22T14:19:39;10.40;;;4.75;;
32032;SDS011;31720;52.638;9.216;2023-06-22T14:22:42;7.13;;;4.90;;
32032;SDS011;31720;52.638;9.216;2023-06-22T14:25:43;12.05;;;6.63;;
32032;SDS011;31720;52.638;9.216;2023-06-22T14:28:45;10.13;;;6.28;;
32032;SDS011;31720;52.638;9.216;2023-06-22T14:31:48;9.98;;;6.63;;
32032;SDS011;31720;52.638;9.216;2023-06-22T14:34:50;9.77;;;7.35;;
32032;SDS011;31720;52.638;9.216;2023-06-22T14:37:53;13.43;;;7.00;;
32032;SDS011;31720;52.638;9.216;2023-06-22T14:40:54;9.65;;;6.75;;
32032;SDS011;31720;52.638;9.216;2023-06-22T14:43:55;16.77;;;7.75;;
32032;SDS011;31720;52.638;9.216;2023-06-22T14:46:57;13.40;;;7.63;;
32032;SDS011;31720;52.638;9.216;2023-06-22T14:49:58;13.57;;;7.10;;
32032;SDS011;31720;52.638;9.216;2023-06-22T14:53:01;14.15;;;8.77;;
32032;SDS011;31720;52.638;9.216;2023-06-22T14:56:03;11.10;;;7.45;;
32032;SDS011;31720;52.638;9.216;2023-06-22T14:59:04;12.00;;;6.85;;
32032;SDS011;31720;52.638;9.216;2023-06-22T15:02:06;11.18;;;7.10;;
32032;SDS011;31720;52.638;9.216;2023-06-22T15:05:07;12.80;;;7.28;;
32032;SDS011;31720;52.638;9.216;2023-06-22T15:08:10;11.63;;;7.88;;
32032;SDS011;31720;52.638;9.216;2023-06-22T15:11:11;14.20;;;9.02;;
32032;SDS011;31720;52.638;9.216;2023-06-22T15:14:13;12.98;;;8.10;;
32032;SDS011;31720;52.638;9.216;2023-06-22T15:17:14;15.07;;;9.45;;
32032;SDS011;31720;52.638;9.216;2023-06-22T15:20:15;15.07;;;9.07;;
32032;SDS011;31720;52.638;9.216;2023-06-22T15:23:18;14.75;;;8.45;;
32032;SDS011;31720;52.638;9.216;2023-06-22T15:26:20;17.38;;;10.20;;
32032;SDS011;31720;52.638;9.216;2023-06-22T15:29:21;18.52;;;10.13;;
32032;SDS011;31720;52.638;9.216;2023-06-22T15:32:23;14.65;;;9.30;;
32032;SDS011;31720;52.638;9.216;2023-06-22T15:35:24;13.43;;;9.23;;
32032;SDS011;31720;52.638;9.216;2023-06-22T15:38:27;11.52;;;7.53;;
32032;SDS011;31720;52.638;9.216;2023-06-22T15:41:28;16.10;;;8.68;;
32032;SDS011;31720;52.638;9.216;2023-06-22T15:44:29;11.40;;;7.57;;
32032;SDS011;31720;52.638;9.216;2023-06-22T15:47:30;11.85;;;7.03;;
32032;SDS011;31720;52.638;9.216;2023-06-22T15:50:32;11.18;;;7.40;;
32032;SDS011;31720;52.638;9.216;2023-06-22T15:53:34;12.68;;;7.80;;
32032;SDS011;31720;52.638;9.216;2023-06-22T15:56:36;12.65;;;7.28;;
32032;SDS011;31720;52.638;9.216;2023-06-22T15:59:37;10.80;;;7.45;;
32032;SDS011;31720;52.638;9.216;2023-06-22T16:02:39;13.35;;;6.78;;
32032;SDS011;31720;52.638;9.216;2023-06-22T16:05:41;14.60;;;9.43;;
32032;SDS011;31720;52.638;9.216;2023-06-22T16:08:44;11.05;;;7.50;;
32032;SDS011;31720;52.638;9.216;2023-06-22T16:11:45;12.18;;;7.30;;
32032;SDS011;31720;52.638;9.216;2023-06-22T16:14:47;14.38;;;9.15;;
32032;SDS011;31720;52.638;9.216;2023-06-22T16:17:48;12.50;;;7.47;;
32032;SDS011;31720;52.638;9.216;2023-06-22T16:20:49;14.93;;;8.82;;
32032;SDS011;31720;52.638;9.216;2023-06-22T16:23:52;14.68;;;7.28;;
32032;SDS011;31720;52.638;9.216;2023-06-22T16:26:53;25.95;;;17.25;;
32032;SDS011;31720;52.638;9.216;2023-06-22T16:29:55;13.48;;;7.93;;
32032;SDS011;31720;52.638;9.216;2023-06-22T16:32:56;13.90;;;7.15;;
32032;SDS011;31720;52.638;9.216;2023-06-22T16:35:58;10.70;;;7.28;;
32032;SDS011;31720;52.638;9.216;2023-06-22T16:39:01;12.77;;;7.60;;
32032;SDS011;31720;52.638;9.216;2023-06-22T16:42:03;12.20;;;7.47;;
32032;SDS011;31720;52.638;9.216;2023-06-22T16:45:05;10.40;;;7.00;;
32032;SDS011;31720;52.638;9.216;2023-06-22T16:48:07;11.63;;;7.82;;
32032;SDS011;31720;52.638;9.216;2023-06-22T16:51:09;11.60;;;7.32;;
32032;SDS011;31720;52.638;9.216;2023-06-22T16:54:12;12.20;;;7.50;;
32032;SDS011;31720;52.638;9.216;2023-06-22T16:57:14;13.32;;;8.23;;
32032;SDS011;31720;52.638;9.216;2023-06-22T17:00:17;10.40;;;7.18;;
32032;SDS011;31720;52.638;9.216;2023-06-22T17:03:20;10.88;;;6.60;;
32032;SDS011;31720;52.638;9.216;2023-06-22T17:06:25;14.82;;;7.55;;
32032;SDS011;31720;52.638;9.216;2023-06-22T17:09:28;11.02;;;7.28;;
32032;SDS011;31720;52.638;9.216;2023-06-22T17:12:30;14.48;;;6.95;;
32032;SDS011;31720;52.638;9.216;2023-06-22T17:15:32;10.25;;;6.68;;
32032;SDS011;31720;52.638;9.216;2023-06-22T17:18:35;11.20;;;6.78;;
32032;SDS011;31720;52.638;9.216;2023-06-22T17:21:38;14.95;;;7.57;;
32032;SDS011;31720;52.638;9.216;2023-06-22T17:24:43;8.65;;;6.47;;
32032;SDS011;31720;52.638;9.216;2023-06-22T17:27:46;11.60;;;6.57;;
32032;SDS011;31720;52.638;9.216;2023-06-22T17:30:48;11.60;;;7.25;;
32032;SDS011;31720;52.638;9.216;2023-06-22T17:34:09;10.23;;;7.15;;
32032;SDS011;31720;52.638;9.216;2023-06-22T17:37:11;9.45;;;6.68;;
32032;SDS011;31720;52.638;9.216;2023-06-22T17:40:14;9.02;;;5.72;;
32032;SDS011;31720;52.638;9.216;2023-06-22T17:43:18;11.20;;;6.65;;
32032;SDS011;31720;52.638;9.216;2023-06-22T17:46:20;12.77;;;6.85;;
32032;SDS011;31720;52.638;9.216;2023-06-22T17:49:25;11.50;;;6.63;;
32032;SDS011;31720;52.638;9.216;2023-06-22T17:52:27;8.23;;;5.93;;
32032;SDS011;31720;52.638;9.216;2023-06-22T17:55:30;11.93;;;6.63;;
32032;SDS011;31720;52.638;9.216;2023-06-22T17:58:34;10.45;;;6.57;;
32032;SDS011;31720;52.638;9.216;2023-06-22T18:01:36;9.73;;;6.35;;
32032;SDS011;31720;52.638;9.216;2023-06-22T18:04:38;9.23;;;5.55;;
32032;SDS011;31720;52.638;9.216;2023-06-22T18:07:40;15.35;;;6.75;;
32032;SDS011;31720;52.638;9.216;2023-06-22T18:10:43;10.00;;;6.28;;
32032;SDS011;31720;52.638;9.216;2023-06-22T18:13:46;8.35;;;5.40;;
32032;SDS011;31720;52.638;9.216;2023-06-22T18:16:49;11.27;;;6.53;;
32032;SDS011;31720;52.638;9.216;2023-06-22T18:19:52;12.50;;;7.32;;